sensor_id;sensor_type;location;lat;lon;timestamp;temperature;humidity
7822;DHT22;3956;50.558;9.678;2023-02-15T00:00:16;-0.20;99.90
7822;DHT22;3956;50.558;9.678;2023-02-15T00:02:44;-0.20;99.90
7822;DHT22;3956;50.558;9.678;2023-02-15T00:05:14;-0.20;99.90
7822;DHT22;3956;50.558;9.678;2023-02-15T00:07:42;-0.20;99.90
7822;DHT22;3956;50.558;9.678;2023-02-15T00:10:26;-0.30;99.90
7822;DHT22;3956;50.558;9.678;2023-02-15T00:12:54;-0.20;99.90
7822;DHT22;3956;50.558;9.678;2023-02-15T00:15:22;-0.20;99.90
7822;DHT22;3956;50.558;9.678;2023-02-15T00:17:52;-0.20;99.90
7822;DHT22;3956;50.558;9.678;2023-02-15T00:20:22;-0.10;99.90
7822;DHT22;3956;50.558;9.678;2023-02-15T00:22:53;-0.20;99.90
7822;DHT22;3956;50.558;9.678;2023-02-15T00:25:22;-0.20;99.90
7822;DHT22;3956;50.558;9.678;2023-02-15T00:27:50;-0.30;99.90
7822;DHT22;3956;50.558;9.678;2023-02-15T00:30:18;-0.30;99.90
7822;DHT22;3956;50.558;9.678;2023-02-15T00:32:49;-0.40;99.90
7822;DHT22;3956;50.558;9.678;2023-02-15T00:35:19;-0.30;99.90
7822;DHT22;3956;50.558;9.678;2023-02-15T00:37:48;-0.30;99.90
7822;DHT22;3956;50.558;9.678;2023-02-15T00:40:17;-0.30;99.90
7822;DHT22;3956;50.558;9.678;2023-02-15T00:42:45;-0.40;99.90
7822;DHT22;3956;50.558;9.678;2023-02-15T00:45:13;-0.30;99.90
7822;DHT22;3956;50.558;9.678;2023-02-15T00:47:43;-0.40;99.90
7822;DHT22;3956;50.558;9.678;2023-02-15T00:50:11;-0.50;99.90
7822;DHT22;3956;50.558;9.678;2023-02-15T00:52:39;-0.40;99.90
7822;DHT22;3956;50.558;9.678;2023-02-15T00:55:09;-0.50;99.90
7822;DHT22;3956;50.558;9.678;2023-02-15T00:57:37;-0.40;1.00
7822;DHT22;3956;50.558;9.678;2023-02-15T01:00:06;-0.40;99.90
7822;DHT22;3956;50.558;9.678;2023-02-15T01:02:34;-0.40;99.90
7822;DHT22;3956;50.558;9.678;2023-02-15T01:05:03;-0.40;99.90
7822;DHT22;3956;50.558;9.678;2023-02-15T01:07:32;-0.30;99.90
7822;DHT22;3956;50.558;9.678;2023-02-15T01:10:00;-0.50;99.90
7822;DHT22;3956;50.558;9.678;2023-02-15T01:12:30;-0.50;99.90
7822;DHT22;3956;50.558;9.678;2023-02-15T01:14:59;-0.50;1.00
7822;DHT22;3956;50.558;9.678;2023-02-15T01:17:27;-0.40;1.00
7822;DHT22;3956;50.558;9.678;2023-02-15T01:19:56;-0.50;1.00
7822;DHT22;3956;50.558;9.678;2023-02-15T01:22:30;-0.50;1.00
7822;DHT22;3956;50.558;9.678;2023-02-15T01:25:01;-0.30;1.00
7822;DHT22;3956;50.558;9.678;2023-02-15T01:27:33;-0.50;1.00
7822;DHT22;3956;50.558;9.678;2023-02-15T01:30:04;-0.40;1.00
7822;DHT22;3956;50.558;9.678;2023-02-15T01:32:33;-0.40;1.00
7822;DHT22;3956;50.558;9.678;2023-02-15T01:35:02;-0.50;1.00
7822;DHT22;3956;50.558;9.678;2023-02-15T01:37:39;-0.30;1.00
7822;DHT22;3956;50.558;9.678;2023-02-15T01:40:15;-0.40;1.00
7822;DHT22;3956;50.558;9.678;2023-02-15T01:42:55;-0.30;1.00
7822;DHT22;3956;50.558;9.678;2023-02-15T01:45:25;-0.30;1.00
7822;DHT22;3956;50.558;9.678;2023-02-15T01:47:59;-0.30;1.00
7822;DHT22;3956;50.558;9.678;2023-02-15T01:50:33;-0.30;1.00
7822;DHT22;3956;50.558;9.678;2023-02-15T01:53:12;-0.40;1.00
7822;DHT22;3956;50.558;9.678;2023-02-15T01:55:47;-0.50;1.00
7822;DHT22;3956;50.558;9.678;2023-02-15T01:58:27;-0.40;1.00
7822;DHT22;3956;50.558;9.678;2023-02-15T02:00:59;-0.40;99.90
7822;DHT22;3956;50.558;9.678;2023-02-15T02:03:38;-0.30;99.90
7822;DHT22;3956;50.558;9.678;2023-02-15T02:06:07;-0.60;99.90
7822;DHT22;3956;50.558;9.678;2023-02-15T02:08:35;-0.60;99.90
7822;DHT22;3956;50.558;9.678;2023-02-15T02:11:10;-0.60;99.90
7822;DHT22;3956;50.558;9.678;2023-02-15T02:13:40;-0.60;99.90
7822;DHT22;3956;50.558;9.678;2023-02-15T02:16:13;-0.60;99.90
7822;DHT22;3956;50.558;9.678;2023-02-15T02:18:54;-0.80;99.90
7822;DHT22;3956;50.558;9.678;2023-02-15T02:25:11;-1.00;1.00
7822;DHT22;3956;50.558;9.678;2023-02-15T02:27:50;-0.90;1.00
7822;DHT22;3956;50.558;9.678;2023-02-15T02:33:42;-0.80;99.90
7822;DHT22;3956;50.558;9.678;2023-02-15T02:36:24;-0.90;99.90
7822;DHT22;3956;50.558;9.678;2023-02-15T02:39:23;-0.80;99.90
7822;DHT22;3956;50.558;9.678;2023-02-15T02:42:02;-0.80;99.90
7822;DHT22;3956;50.558;9.678;2023-02-15T02:44:38;-0.80;99.90
7822;DHT22;3956;50.558;9.678;2023-02-15T02:47:11;-0.80;99.90
7822;DHT22;3956;50.558;9.678;2023-02-15T02:49:45;-0.80;99.90
7822;DHT22;3956;50.558;9.678;2023-02-15T02:52:34;-0.90;99.90
7822;DHT22;3956;50.558;9.678;2023-02-15T02:55:08;-1.00;99.90
7822;DHT22;3956;50.558;9.678;2023-02-15T02:57:44;-0.90;1.00
7822;DHT22;3956;50.558;9.678;2023-02-15T03:00:18;-0.90;99.90
7822;DHT22;3956;50.558;9.678;2023-02-15T03:02:54;-1.00;1.00
7822;DHT22;3956;50.558;9.678;2023-02-15T03:05:48;-0.80;1.00
7822;DHT22;3956;50.558;9.678;2023-02-15T03:08:19;-0.90;99.90
7822;DHT22;3956;50.558;9.678;2023-02-15T03:10:56;-0.90;99.90
7822;DHT22;3956;50.558;9.678;2023-02-15T03:13:30;-0.90;99.90
7822;DHT22;3956;50.558;9.678;2023-02-15T03:16:03;-1.00;1.00
7822;DHT22;3956;50.558;9.678;2023-02-15T03:18:58;-0.90;1.00
7822;DHT22;3956;50.558;9.678;2023-02-15T03:21:36;-1.00;1.00
7822;DHT22;3956;50.558;9.678;2023-02-15T03:24:13;-1.00;1.00
7822;DHT22;3956;50.558;9.678;2023-02-15T03:26:45;-1.00;1.00
7822;DHT22;3956;50.558;9.678;2023-02-15T03:29:15;-0.90;1.00
7822;DHT22;3956;50.558;9.678;2023-02-15T03:31:53;-0.90;1.00
7822;DHT22;3956;50.558;9.678;2023-02-15T03:34:23;-0.90;1.00
7822;DHT22;3956;50.558;9.678;2023-02-15T03:37:00;-0.90;1.00
7822;DHT22;3956;50.558;9.678;2023-02-15T03:39:52;-1.00;1.00
7822;DHT22;3956;50.558;9.678;2023-02-15T03:42:26;-0.90;1.00
7822;DHT22;3956;50.558;9.678;2023-02-15T03:45:05;-0.90;1.00
7822;DHT22;3956;50.558;9.678;2023-02-15T03:47:45;-0.80;1.00
7822;DHT22;3956;50.558;9.678;2023-02-15T03:50:33;-0.90;1.00
7822;DHT22;3956;50.558;9.678;2023-02-15T03:53:23;-0.90;1.00
7822;DHT22;3956;50.558;9.678;2023-02-15T03:55:58;-0.90;1.00
7822;DHT22;3956;50.558;9.678;2023-02-15T03:58:27;-0.80;1.00
7822;DHT22;3956;50.558;9.678;2023-02-15T04:01:21;-0.90;1.00
7822;DHT22;3956;50.558;9.678;2023-02-15T04:04:18;-1.00;1.00
7822;DHT22;3956;50.558;9.678;2023-02-15T04:06:48;-1.10;1.00
7822;DHT22;3956;50.558;9.678;2023-02-15T04:09:18;-1.10;1.00
7822;DHT22;3956;50.558;9.678;2023-02-15T04:12:07;-1.10;1.00
7822;DHT22;3956;50.558;9.678;2023-02-15T04:14:36;-1.10;1.00
7822;DHT22;3956;50.558;9.678;2023-02-15T04:17:21;-1.10;1.00
7822;DHT22;3956;50.558;9.678;2023-02-15T04:19:53;-1.20;1.00
7822;DHT22;3956;50.558;9.678;2023-02-15T04:22:40;-1.10;1.00
7822;DHT22;3956;50.558;9.678;2023-02-15T04:25:26;-1.00;1.00
7822;DHT22;3956;50.558;9.678;2023-02-15T04:27:56;-0.90;1.00
7822;DHT22;3956;50.558;9.678;2023-02-15T04:30:27;-0.80;1.00
7822;DHT22;3956;50.558;9.678;2023-02-15T04:32:55;-0.90;1.00
7822;DHT22;3956;50.558;9.678;2023-02-15T04:35:25;-0.90;1.00
7822;DHT22;3956;50.558;9.678;2023-02-15T04:37:57;-0.80;1.00
7822;DHT22;3956;50.558;9.678;2023-02-15T04:40:28;-0.80;1.00
7822;DHT22;3956;50.558;9.678;2023-02-15T04:43:05;-0.90;1.00
7822;DHT22;3956;50.558;9.678;2023-02-15T04:45:42;-0.80;1.00
7822;DHT22;3956;50.558;9.678;2023-02-15T04:48:22;-1.00;1.00
7822;DHT22;3956;50.558;9.678;2023-02-15T04:50:52;-0.90;1.00
7822;DHT22;3956;50.558;9.678;2023-02-15T04:53:20;-0.80;1.00
7822;DHT22;3956;50.558;9.678;2023-02-15T04:55:51;-0.80;1.00
7822;DHT22;3956;50.558;9.678;2023-02-15T04:58:24;-0.70;1.00
7822;DHT22;3956;50.558;9.678;2023-02-15T05:00:56;-1.00;99.90
7822;DHT22;3956;50.558;9.678;2023-02-15T05:03:31;-0.90;1.00
7822;DHT22;3956;50.558;9.678;2023-02-15T05:07:04;-0.90;1.00
7822;DHT22;3956;50.558;9.678;2023-02-15T05:09:33;-0.90;99.90
7822;DHT22;3956;50.558;9.678;2023-02-15T05:12:02;-0.90;1.00
7822;DHT22;3956;50.558;9.678;2023-02-15T05:14:32;-0.80;1.00
7822;DHT22;3956;50.558;9.678;2023-02-15T05:17:01;-0.70;99.90
7822;DHT22;3956;50.558;9.678;2023-02-15T05:19:30;-0.70;99.90
7822;DHT22;3956;50.558;9.678;2023-02-15T05:21:59;-0.80;99.90
7822;DHT22;3956;50.558;9.678;2023-02-15T05:24:29;-0.80;99.90
7822;DHT22;3956;50.558;9.678;2023-02-15T05:27:23;-0.80;99.90
7822;DHT22;3956;50.558;9.678;2023-02-15T05:30:12;-0.80;99.90
7822;DHT22;3956;50.558;9.678;2023-02-15T05:32:42;-0.70;99.90
7822;DHT22;3956;50.558;9.678;2023-02-15T05:35:16;-0.60;99.90
7822;DHT22;3956;50.558;9.678;2023-02-15T05:37:48;-0.60;99.90
7822;DHT22;3956;50.558;9.678;2023-02-15T05:40:20;-0.70;99.90
7822;DHT22;3956;50.558;9.678;2023-02-15T05:42:52;-0.90;99.90
7822;DHT22;3956;50.558;9.678;2023-02-15T05:49:14;-1.00;1.00
7822;DHT22;3956;50.558;9.678;2023-02-15T05:51:43;-1.00;1.00
7822;DHT22;3956;50.558;9.678;2023-02-15T05:54:12;-0.80;1.00
7822;DHT22;3956;50.558;9.678;2023-02-15T05:56:40;-0.80;99.90
7822;DHT22;3956;50.558;9.678;2023-02-15T05:59:12;-0.80;99.90
7822;DHT22;3956;50.558;9.678;2023-02-15T06:01:48;-0.80;99.90
7822;DHT22;3956;50.558;9.678;2023-02-15T06:04:26;-0.70;99.90
7822;DHT22;3956;50.558;9.678;2023-02-15T06:06:57;-0.60;1.00
7822;DHT22;3956;50.558;9.678;2023-02-15T06:09:27;-0.80;99.90
7822;DHT22;3956;50.558;9.678;2023-02-15T06:11:56;-0.60;99.90
7822;DHT22;3956;50.558;9.678;2023-02-15T06:14:24;-0.70;99.90
7822;DHT22;3956;50.558;9.678;2023-02-15T06:16:53;-0.70;99.90
7822;DHT22;3956;50.558;9.678;2023-02-15T06:19:26;-0.80;99.90
7822;DHT22;3956;50.558;9.678;2023-02-15T06:22:01;-0.80;99.90
7822;DHT22;3956;50.558;9.678;2023-02-15T06:24:43;-0.70;99.90
7822;DHT22;3956;50.558;9.678;2023-02-15T06:27:28;-0.80;99.90
7822;DHT22;3956;50.558;9.678;2023-02-15T06:30:39;-0.80;99.90
7822;DHT22;3956;50.558;9.678;2023-02-15T06:33:16;-0.90;99.90
7822;DHT22;3956;50.558;9.678;2023-02-15T06:36:36;-0.90;99.90
7822;DHT22;3956;50.558;9.678;2023-02-15T06:39:31;-1.00;99.90
7822;DHT22;3956;50.558;9.678;2023-02-15T06:42:01;-0.90;99.90
7822;DHT22;3956;50.558;9.678;2023-02-15T06:44:29;-1.00;99.90
7822;DHT22;3956;50.558;9.678;2023-02-15T06:46:58;-1.00;99.90
7822;DHT22;3956;50.558;9.678;2023-02-15T06:49:26;-0.90;99.90
7822;DHT22;3956;50.558;9.678;2023-02-15T06:51:57;-0.90;99.90
7822;DHT22;3956;50.558;9.678;2023-02-15T06:54:28;-0.90;99.90
7822;DHT22;3956;50.558;9.678;2023-02-15T06:56:57;-0.80;99.90
7822;DHT22;3956;50.558;9.678;2023-02-15T06:59:28;-1.00;99.90
7822;DHT22;3956;50.558;9.678;2023-02-15T07:02:00;-0.90;99.90
7822;DHT22;3956;50.558;9.678;2023-02-15T07:04:29;-0.90;99.90
7822;DHT22;3956;50.558;9.678;2023-02-15T07:07:00;-0.90;99.90
7822;DHT22;3956;50.558;9.678;2023-02-15T07:09:32;-0.80;99.90
7822;DHT22;3956;50.558;9.678;2023-02-15T07:12:09;-0.70;99.90
7822;DHT22;3956;50.558;9.678;2023-02-15T07:14:54;-0.70;99.90
7822;DHT22;3956;50.558;9.678;2023-02-15T07:17:27;-0.60;99.90
7822;DHT22;3956;50.558;9.678;2023-02-15T07:20:06;-0.60;99.90
7822;DHT22;3956;50.558;9.678;2023-02-15T07:22:38;-0.30;99.90
7822;DHT22;3956;50.558;9.678;2023-02-15T07:25:13;-0.40;99.90
7822;DHT22;3956;50.558;9.678;2023-02-15T07:27:43;-0.30;99.90
7822;DHT22;3956;50.558;9.678;2023-02-15T07:30:14;-0.40;99.90
7822;DHT22;3956;50.558;9.678;2023-02-15T07:32:45;-0.30;99.90
7822;DHT22;3956;50.558;9.678;2023-02-15T07:35:32;-0.10;99.90
7822;DHT22;3956;50.558;9.678;2023-02-15T07:38:07;-0.30;99.90
7822;DHT22;3956;50.558;9.678;2023-02-15T07:40:38;-0.30;99.90
7822;DHT22;3956;50.558;9.678;2023-02-15T07:43:16;-0.30;99.90
7822;DHT22;3956;50.558;9.678;2023-02-15T07:45:46;0.00;99.90
7822;DHT22;3956;50.558;9.678;2023-02-15T07:48:17;0.00;99.90
7822;DHT22;3956;50.558;9.678;2023-02-15T07:50:45;0.30;99.90
7822;DHT22;3956;50.558;9.678;2023-02-15T07:57:19;0.80;99.90
7822;DHT22;3956;50.558;9.678;2023-02-15T07:59:57;1.80;22.70
7822;DHT22;3956;50.558;9.678;2023-02-15T08:05:09;0.50;99.90
7822;DHT22;3956;50.558;9.678;2023-02-15T08:07:45;0.60;99.90
7822;DHT22;3956;50.558;9.678;2023-02-15T08:10:56;0.60;99.90
7822;DHT22;3956;50.558;9.678;2023-02-15T08:17:26;0.70;99.90
7822;DHT22;3956;50.558;9.678;2023-02-15T08:19:55;1.10;99.90
7822;DHT22;3956;50.558;9.678;2023-02-15T08:22:32;1.10;72.00
7822;DHT22;3956;50.558;9.678;2023-02-15T08:25:01;0.40;99.90
7822;DHT22;3956;50.558;9.678;2023-02-15T08:27:58;0.80;99.90
7822;DHT22;3956;50.558;9.678;2023-02-15T08:31:07;0.70;99.90
7822;DHT22;3956;50.558;9.678;2023-02-15T08:33:47;1.20;99.90
7822;DHT22;3956;50.558;9.678;2023-02-15T08:36:20;1.90;46.10
7822;DHT22;3956;50.558;9.678;2023-02-15T08:39:06;2.90;1.00
7822;DHT22;3956;50.558;9.678;2023-02-15T08:41:41;3.90;1.00
7822;DHT22;3956;50.558;9.678;2023-02-15T08:44:15;3.80;1.00
7822;DHT22;3956;50.558;9.678;2023-02-15T08:46:47;2.70;1.00
7822;DHT22;3956;50.558;9.678;2023-02-15T08:49:28;1.80;4.70
7822;DHT22;3956;50.558;9.678;2023-02-15T08:52:01;1.60;22.60
7822;DHT22;3956;50.558;9.678;2023-02-15T08:54:35;1.20;47.90
7822;DHT22;3956;50.558;9.678;2023-02-15T08:57:05;0.80;99.90
7822;DHT22;3956;50.558;9.678;2023-02-15T09:06:30;1.80;44.20
7822;DHT22;3956;50.558;9.678;2023-02-15T09:09:16;1.80;68.30
7822;DHT22;3956;50.558;9.678;2023-02-15T09:11:49;1.70;55.80
7822;DHT22;3956;50.558;9.678;2023-02-15T09:14:30;1.10;94.00
7822;DHT22;3956;50.558;9.678;2023-02-15T09:17:03;1.50;70.40
7822;DHT22;3956;50.558;9.678;2023-02-15T09:19:31;1.80;52.70
7822;DHT22;3956;50.558;9.678;2023-02-15T09:22:02;1.30;69.10
7822;DHT22;3956;50.558;9.678;2023-02-15T09:24:32;1.40;88.30
7822;DHT22;3956;50.558;9.678;2023-02-15T09:27:01;1.10;93.80
7822;DHT22;3956;50.558;9.678;2023-02-15T09:29:30;1.20;99.90
7822;DHT22;3956;50.558;9.678;2023-02-15T09:31:58;1.10;94.40
7822;DHT22;3956;50.558;9.678;2023-02-15T09:34:27;1.20;92.30
7822;DHT22;3956;50.558;9.678;2023-02-15T09:36:55;1.50;89.70
7822;DHT22;3956;50.558;9.678;2023-02-15T09:39:25;1.20;86.90
7822;DHT22;3956;50.558;9.678;2023-02-15T09:42:10;1.10;99.90
7822;DHT22;3956;50.558;9.678;2023-02-15T09:51:49;1.80;60.20
7822;DHT22;3956;50.558;9.678;2023-02-15T09:54:51;1.20;72.20
7822;DHT22;3956;50.558;9.678;2023-02-15T09:57:29;1.50;90.50
7822;DHT22;3956;50.558;9.678;2023-02-15T10:00:12;1.90;56.90
7822;DHT22;3956;50.558;9.678;2023-02-15T10:05:51;2.20;37.30
7822;DHT22;3956;50.558;9.678;2023-02-15T10:11:15;2.50;21.70
7822;DHT22;3956;50.558;9.678;2023-02-15T10:14:20;2.10;36.40
7822;DHT22;3956;50.558;9.678;2023-02-15T10:17:11;2.30;27.40
7822;DHT22;3956;50.558;9.678;2023-02-15T10:19:56;2.50;34.80
7822;DHT22;3956;50.558;9.678;2023-02-15T10:22:50;2.00;53.60
7822;DHT22;3956;50.558;9.678;2023-02-15T10:25:43;2.50;25.20
7822;DHT22;3956;50.558;9.678;2023-02-15T10:28:28;2.70;15.20
7822;DHT22;3956;50.558;9.678;2023-02-15T10:31:23;2.00;54.20
7822;DHT22;3956;50.558;9.678;2023-02-15T10:34:30;2.00;55.10
7822;DHT22;3956;50.558;9.678;2023-02-15T10:37:29;2.60;33.60
7822;DHT22;3956;50.558;9.678;2023-02-15T10:40:28;2.40;35.70
7822;DHT22;3956;50.558;9.678;2023-02-15T10:43:36;2.40;37.00
7822;DHT22;3956;50.558;9.678;2023-02-15T10:46:31;2.70;30.90
7822;DHT22;3956;50.558;9.678;2023-02-15T10:49:24;2.70;28.50
7822;DHT22;3956;50.558;9.678;2023-02-15T10:52:09;2.90;19.80
7822;DHT22;3956;50.558;9.678;2023-02-15T10:54:53;2.90;15.30
7822;DHT22;3956;50.558;9.678;2023-02-15T10:58:10;2.90;23.10
7822;DHT22;3956;50.558;9.678;2023-02-15T11:04:36;2.90;19.20
7822;DHT22;3956;50.558;9.678;2023-02-15T11:07:15;3.10;14.00
7822;DHT22;3956;50.558;9.678;2023-02-15T11:09:49;3.00;15.70
7822;DHT22;3956;50.558;9.678;2023-02-15T11:12:22;3.00;19.40
7822;DHT22;3956;50.558;9.678;2023-02-15T11:15:00;3.20;11.00
7822;DHT22;3956;50.558;9.678;2023-02-15T11:17:36;3.40;5.00
7822;DHT22;3956;50.558;9.678;2023-02-15T11:20:18;3.60;1.00
7822;DHT22;3956;50.558;9.678;2023-02-15T11:22:51;3.70;1.00
7822;DHT22;3956;50.558;9.678;2023-02-15T11:25:32;3.40;1.00
7822;DHT22;3956;50.558;9.678;2023-02-15T11:28:41;3.80;1.00
7822;DHT22;3956;50.558;9.678;2023-02-15T11:31:15;3.70;15.20
7822;DHT22;3956;50.558;9.678;2023-02-15T11:33:47;3.80;1.00
7822;DHT22;3956;50.558;9.678;2023-02-15T11:36:20;3.90;1.00
7822;DHT22;3956;50.558;9.678;2023-02-15T11:38:56;4.00;1.00
7822;DHT22;3956;50.558;9.678;2023-02-15T11:41:29;3.90;1.00
7822;DHT22;3956;50.558;9.678;2023-02-15T11:44:11;3.90;1.00
7822;DHT22;3956;50.558;9.678;2023-02-15T11:46:48;4.00;1.00
7822;DHT22;3956;50.558;9.678;2023-02-15T11:49:23;3.80;1.80
7822;DHT22;3956;50.558;9.678;2023-02-15T11:52:04;3.80;1.00
7822;DHT22;3956;50.558;9.678;2023-02-15T11:54:53;3.80;1.00
7822;DHT22;3956;50.558;9.678;2023-02-15T11:58:04;3.90;1.00
7822;DHT22;3956;50.558;9.678;2023-02-15T12:01:28;3.80;1.00
7822;DHT22;3956;50.558;9.678;2023-02-15T12:04:02;4.20;1.00
7822;DHT22;3956;50.558;9.678;2023-02-15T12:06:58;4.10;9.50
7822;DHT22;3956;50.558;9.678;2023-02-15T12:09:52;4.20;1.00
7822;DHT22;3956;50.558;9.678;2023-02-15T12:12:25;4.10;1.00
7822;DHT22;3956;50.558;9.678;2023-02-15T12:14:58;4.30;1.00
7822;DHT22;3956;50.558;9.678;2023-02-15T12:17:34;4.10;1.00
7822;DHT22;3956;50.558;9.678;2023-02-15T12:20:20;4.10;1.00
7822;DHT22;3956;50.558;9.678;2023-02-15T12:23:14;4.30;1.00
7822;DHT22;3956;50.558;9.678;2023-02-15T12:26:14;4.00;1.00
7822;DHT22;3956;50.558;9.678;2023-02-15T12:29:44;4.00;1.00
7822;DHT22;3956;50.558;9.678;2023-02-15T12:32:46;4.40;1.00
7822;DHT22;3956;50.558;9.678;2023-02-15T12:35:44;4.00;1.00
7822;DHT22;3956;50.558;9.678;2023-02-15T12:39:03;4.10;1.00
7822;DHT22;3956;50.558;9.678;2023-02-15T12:42:14;3.90;1.00
7822;DHT22;3956;50.558;9.678;2023-02-15T12:45:32;3.70;1.00
7822;DHT22;3956;50.558;9.678;2023-02-15T12:48:16;4.00;1.00
7822;DHT22;3956;50.558;9.678;2023-02-15T12:50:46;4.20;1.00
7822;DHT22;3956;50.558;9.678;2023-02-15T12:53:22;4.10;1.00
7822;DHT22;3956;50.558;9.678;2023-02-15T12:56:02;3.90;1.00
7822;DHT22;3956;50.558;9.678;2023-02-15T12:58:38;4.00;1.00
7822;DHT22;3956;50.558;9.678;2023-02-15T13:01:45;4.00;1.00
7822;DHT22;3956;50.558;9.678;2023-02-15T13:04:27;3.80;1.00
7822;DHT22;3956;50.558;9.678;2023-02-15T13:07:08;3.90;1.00
7822;DHT22;3956;50.558;9.678;2023-02-15T13:10:23;4.20;1.00
7822;DHT22;3956;50.558;9.678;2023-02-15T13:13:00;3.80;1.00
7822;DHT22;3956;50.558;9.678;2023-02-15T13:15:41;3.70;2.80
7822;DHT22;3956;50.558;9.678;2023-02-15T13:18:16;3.90;1.00
7822;DHT22;3956;50.558;9.678;2023-02-15T13:20:44;4.00;1.00
7822;DHT22;3956;50.558;9.678;2023-02-15T13:23:28;4.10;1.00
7822;DHT22;3956;50.558;9.678;2023-02-15T13:25:59;4.00;1.00
7822;DHT22;3956;50.558;9.678;2023-02-15T13:28:35;4.20;1.00
7822;DHT22;3956;50.558;9.678;2023-02-15T13:31:13;4.00;1.00
7822;DHT22;3956;50.558;9.678;2023-02-15T13:33:44;4.10;1.00
7822;DHT22;3956;50.558;9.678;2023-02-15T13:36:22;4.20;1.00
7822;DHT22;3956;50.558;9.678;2023-02-15T13:39:06;4.10;1.00
7822;DHT22;3956;50.558;9.678;2023-02-15T13:41:53;4.20;1.00
7822;DHT22;3956;50.558;9.678;2023-02-15T13:44:49;4.00;1.00
7822;DHT22;3956;50.558;9.678;2023-02-15T13:47:23;4.10;1.00
7822;DHT22;3956;50.558;9.678;2023-02-15T13:50:14;4.00;1.00
7822;DHT22;3956;50.558;9.678;2023-02-15T13:53:47;4.00;1.00
7822;DHT22;3956;50.558;9.678;2023-02-15T13:56:52;3.90;1.00
7822;DHT22;3956;50.558;9.678;2023-02-15T13:59:52;3.90;1.00
7822;DHT22;3956;50.558;9.678;2023-02-15T14:03:02;3.90;1.00
7822;DHT22;3956;50.558;9.678;2023-02-15T14:09:13;4.10;1.00
7822;DHT22;3956;50.558;9.678;2023-02-15T14:12:06;4.10;1.00
7822;DHT22;3956;50.558;9.678;2023-02-15T14:15:33;4.00;1.00
7822;DHT22;3956;50.558;9.678;2023-02-15T14:18:14;3.70;1.00
7822;DHT22;3956;50.558;9.678;2023-02-15T14:20:57;4.00;1.00
7822;DHT22;3956;50.558;9.678;2023-02-15T14:23:48;4.30;1.00
7822;DHT22;3956;50.558;9.678;2023-02-15T14:26:39;4.30;1.00
7822;DHT22;3956;50.558;9.678;2023-02-15T14:29:22;4.10;1.00
7822;DHT22;3956;50.558;9.678;2023-02-15T14:32:01;3.90;1.00
7822;DHT22;3956;50.558;9.678;2023-02-15T14:34:42;4.10;1.00
7822;DHT22;3956;50.558;9.678;2023-02-15T14:37:14;3.80;16.00
7822;DHT22;3956;50.558;9.678;2023-02-15T14:40:10;3.90;1.00
7822;DHT22;3956;50.558;9.678;2023-02-15T14:43:42;3.90;1.00
7822;DHT22;3956;50.558;9.678;2023-02-15T14:46:21;4.00;1.00
7822;DHT22;3956;50.558;9.678;2023-02-15T14:48:55;3.80;1.00
7822;DHT22;3956;50.558;9.678;2023-02-15T14:54:52;3.90;1.00
7822;DHT22;3956;50.558;9.678;2023-02-15T14:57:29;3.90;1.00
7822;DHT22;3956;50.558;9.678;2023-02-15T15:00:49;3.90;1.00
7822;DHT22;3956;50.558;9.678;2023-02-15T15:03:49;3.90;1.00
7822;DHT22;3956;50.558;9.678;2023-02-15T15:07:08;3.90;1.00
7822;DHT22;3956;50.558;9.678;2023-02-15T15:10:00;4.00;1.00
7822;DHT22;3956;50.558;9.678;2023-02-15T15:12:39;4.00;1.00
7822;DHT22;3956;50.558;9.678;2023-02-15T15:15:12;4.10;1.00
7822;DHT22;3956;50.558;9.678;2023-02-15T15:17:58;4.10;9.50
7822;DHT22;3956;50.558;9.678;2023-02-15T15:20:43;4.00;1.00
7822;DHT22;3956;50.558;9.678;2023-02-15T15:23:42;4.00;1.00
7822;DHT22;3956;50.558;9.678;2023-02-15T15:26:27;3.90;1.00
7822;DHT22;3956;50.558;9.678;2023-02-15T15:29:07;3.80;1.00
7822;DHT22;3956;50.558;9.678;2023-02-15T15:31:50;3.70;1.00
7822;DHT22;3956;50.558;9.678;2023-02-15T15:41:09;3.60;1.00
7822;DHT22;3956;50.558;9.678;2023-02-15T15:47:53;3.60;1.00
7822;DHT22;3956;50.558;9.678;2023-02-15T15:50:34;3.40;1.00
7822;DHT22;3956;50.558;9.678;2023-02-15T15:53:03;3.40;1.00
7822;DHT22;3956;50.558;9.678;2023-02-15T15:55:33;3.30;1.00
7822;DHT22;3956;50.558;9.678;2023-02-15T15:58:05;3.20;6.20
7822;DHT22;3956;50.558;9.678;2023-02-15T16:00:37;3.10;6.60
7822;DHT22;3956;50.558;9.678;2023-02-15T16:03:49;3.00;9.10
7822;DHT22;3956;50.558;9.678;2023-02-15T16:06:33;3.10;12.80
7822;DHT22;3956;50.558;9.678;2023-02-15T16:09:15;2.90;28.30
7822;DHT22;3956;50.558;9.678;2023-02-15T16:11:46;2.90;10.90
7822;DHT22;3956;50.558;9.678;2023-02-15T16:14:32;2.80;12.90
7822;DHT22;3956;50.558;9.678;2023-02-15T16:17:05;2.80;17.70
7822;DHT22;3956;50.558;9.678;2023-02-15T16:19:36;2.60;22.50
7822;DHT22;3956;50.558;9.678;2023-02-15T16:22:13;2.60;25.70
7822;DHT22;3956;50.558;9.678;2023-02-15T16:28:11;2.50;29.60
7822;DHT22;3956;50.558;9.678;2023-02-15T16:31:26;2.30;36.50
7822;DHT22;3956;50.558;9.678;2023-02-15T16:33:58;2.30;46.20
7822;DHT22;3956;50.558;9.678;2023-02-15T16:36:35;2.30;45.30
7822;DHT22;3956;50.558;9.678;2023-02-15T16:39:45;2.20;45.70
7822;DHT22;3956;50.558;9.678;2023-02-15T16:42:18;2.10;49.70
7822;DHT22;3956;50.558;9.678;2023-02-15T16:44:48;2.10;60.50
7822;DHT22;3956;50.558;9.678;2023-02-15T16:47:22;2.10;53.10
7822;DHT22;3956;50.558;9.678;2023-02-15T16:50:01;1.90;60.50
7822;DHT22;3956;50.558;9.678;2023-02-15T16:52:44;1.90;73.70
7822;DHT22;3956;50.558;9.678;2023-02-15T16:55:22;1.90;71.60
7822;DHT22;3956;50.558;9.678;2023-02-15T16:57:52;1.90;73.50
7822;DHT22;3956;50.558;9.678;2023-02-15T17:00:47;1.80;72.50
7822;DHT22;3956;50.558;9.678;2023-02-15T17:07:31;1.80;72.50
7822;DHT22;3956;50.558;9.678;2023-02-15T17:10:36;1.80;76.70
7822;DHT22;3956;50.558;9.678;2023-02-15T17:13:25;1.80;74.70
7822;DHT22;3956;50.558;9.678;2023-02-15T17:16:23;1.80;73.60
7822;DHT22;3956;50.558;9.678;2023-02-15T17:19:08;1.70;80.10
7822;DHT22;3956;50.558;9.678;2023-02-15T17:21:46;1.70;86.20
7822;DHT22;3956;50.558;9.678;2023-02-15T17:25:02;1.60;87.20
7822;DHT22;3956;50.558;9.678;2023-02-15T17:28:14;1.50;83.70
7822;DHT22;3956;50.558;9.678;2023-02-15T17:31:07;1.50;89.70
7822;DHT22;3956;50.558;9.678;2023-02-15T17:33:37;1.40;91.10
7822;DHT22;3956;50.558;9.678;2023-02-15T17:36:09;1.30;93.20
7822;DHT22;3956;50.558;9.678;2023-02-15T17:39:02;1.20;95.00
7822;DHT22;3956;50.558;9.678;2023-02-15T17:42:28;1.20;99.40
7822;DHT22;3956;50.558;9.678;2023-02-15T17:45:48;1.30;98.50
7822;DHT22;3956;50.558;9.678;2023-02-15T17:48:21;1.20;97.50
7822;DHT22;3956;50.558;9.678;2023-02-15T17:50:50;1.10;99.90
7822;DHT22;3956;50.558;9.678;2023-02-15T17:53:19;1.10;99.90
7822;DHT22;3956;50.558;9.678;2023-02-15T17:55:49;1.10;99.90
7822;DHT22;3956;50.558;9.678;2023-02-15T17:58:24;1.10;99.90
7822;DHT22;3956;50.558;9.678;2023-02-15T18:00:55;1.10;99.90
7822;DHT22;3956;50.558;9.678;2023-02-15T18:03:43;1.10;99.90
7822;DHT22;3956;50.558;9.678;2023-02-15T18:06:29;1.10;99.90
7822;DHT22;3956;50.558;9.678;2023-02-15T18:09:19;1.00;99.90
7822;DHT22;3956;50.558;9.678;2023-02-15T18:12:18;1.00;99.90
7822;DHT22;3956;50.558;9.678;2023-02-15T18:14:51;1.00;99.90
7822;DHT22;3956;50.558;9.678;2023-02-15T18:17:26;1.00;99.90
7822;DHT22;3956;50.558;9.678;2023-02-15T18:20:06;1.00;99.90
7822;DHT22;3956;50.558;9.678;2023-02-15T18:22:43;0.90;99.90
7822;DHT22;3956;50.558;9.678;2023-02-15T18:25:13;0.90;99.90
7822;DHT22;3956;50.558;9.678;2023-02-15T18:27:41;0.90;99.90
7822;DHT22;3956;50.558;9.678;2023-02-15T18:30:17;0.90;99.90
7822;DHT22;3956;50.558;9.678;2023-02-15T18:32:48;0.90;99.90
7822;DHT22;3956;50.558;9.678;2023-02-15T18:35:19;0.90;99.90
7822;DHT22;3956;50.558;9.678;2023-02-15T18:37:50;0.90;99.90
7822;DHT22;3956;50.558;9.678;2023-02-15T18:40:21;0.80;99.90
7822;DHT22;3956;50.558;9.678;2023-02-15T18:42:50;0.80;99.90
7822;DHT22;3956;50.558;9.678;2023-02-15T18:45:21;0.80;99.90
7822;DHT22;3956;50.558;9.678;2023-02-15T18:47:51;0.80;99.90
7822;DHT22;3956;50.558;9.678;2023-02-15T18:50:21;0.70;99.90